sensor_id;sensor_type;location;lat;lon;timestamp;temperature;humidity
50606;DHT22;36557;53.572;10.170;2022-10-24T00:00:47;13.90;99.90
50606;DHT22;36557;53.572;10.170;2022-10-24T00:03:13;13.80;99.90
50606;DHT22;36557;53.572;10.170;2022-10-24T00:05:47;13.80;99.90
50606;DHT22;36557;53.572;10.170;2022-10-24T00:08:14;13.80;99.90
50606;DHT22;36557;53.572;10.170;2022-10-24T00:10:43;13.80;99.90
50606;DHT22;36557;53.572;10.170;2022-10-24T00:13:10;13.80;99.90
50606;DHT22;36557;53.572;10.170;2022-10-24T00:15:36;13.80;99.90
50606;DHT22;36557;53.572;10.170;2022-10-24T00:18:02;13.80;99.90
50606;DHT22;36557;53.572;10.170;2022-10-24T00:20:28;13.80;99.90
50606;DHT22;36557;53.572;10.170;2022-10-24T00:22:53;13.80;99.90
50606;DHT22;36557;53.572;10.170;2022-10-24T00:25:19;13.80;99.90
50606;DHT22;36557;53.572;10.170;2022-10-24T00:27:45;13.70;99.90
50606;DHT22;36557;53.572;10.170;2022-10-24T00:30:11;13.70;99.90
50606;DHT22;36557;53.572;10.170;2022-10-24T00:32:37;13.70;99.90
50606;DHT22;36557;53.572;10.170;2022-10-24T00:35:03;13.70;99.90
50606;DHT22;36557;53.572;10.170;2022-10-24T00:37:29;13.70;99.90
50606;DHT22;36557;53.572;10.170;2022-10-24T00:39:55;13.70;99.90
50606;DHT22;36557;53.572;10.170;2022-10-24T00:42:21;13.70;99.90
50606;DHT22;36557;53.572;10.170;2022-10-24T00:44:50;13.70;99.90
50606;DHT22;36557;53.572;10.170;2022-10-24T00:47:18;13.70;99.90
50606;DHT22;36557;53.572;10.170;2022-10-24T00:50:09;13.70;99.90
50606;DHT22;36557;53.572;10.170;2022-10-24T00:52:41;13.70;99.90
50606;DHT22;36557;53.572;10.170;2022-10-24T00:55:07;13.70;99.90
50606;DHT22;36557;53.572;10.170;2022-10-24T00:57:42;13.70;99.90
50606;DHT22;36557;53.572;10.170;2022-10-24T01:00:13;13.70;99.90
50606;DHT22;36557;53.572;10.170;2022-10-24T01:02:39;13.70;99.90
50606;DHT22;36557;53.572;10.170;2022-10-24T01:05:06;13.70;99.90
50606;DHT22;36557;53.572;10.170;2022-10-24T01:08:01;13.70;99.90
50606;DHT22;36557;53.572;10.170;2022-10-24T01:10:38;13.60;99.90
50606;DHT22;36557;53.572;10.170;2022-10-24T01:18:33;13.60;99.90
50606;DHT22;36557;53.572;10.170;2022-10-24T01:29:10;13.50;99.90
50606;DHT22;36557;53.572;10.170;2022-10-24T01:31:51;13.40;99.90
50606;DHT22;36557;53.572;10.170;2022-10-24T01:34:29;13.40;99.90
50606;DHT22;36557;53.572;10.170;2022-10-24T01:37:06;13.40;99.90
50606;DHT22;36557;53.572;10.170;2022-10-24T01:39:38;13.30;99.90
50606;DHT22;36557;53.572;10.170;2022-10-24T01:42:06;13.40;99.90
50606;DHT22;36557;53.572;10.170;2022-10-24T01:44:39;13.30;99.90
50606;DHT22;36557;53.572;10.170;2022-10-24T01:47:23;13.30;99.90
50606;DHT22;36557;53.572;10.170;2022-10-24T01:50:01;13.30;99.90
50606;DHT22;36557;53.572;10.170;2022-10-24T01:52:32;13.20;99.90
50606;DHT22;36557;53.572;10.170;2022-10-24T01:54:59;13.30;99.90
50606;DHT22;36557;53.572;10.170;2022-10-24T01:57:30;13.40;99.90
50606;DHT22;36557;53.572;10.170;2022-10-24T01:59:56;13.30;99.90
50606;DHT22;36557;53.572;10.170;2022-10-24T02:02:33;13.20;99.90
50606;DHT22;36557;53.572;10.170;2022-10-24T02:05:13;13.20;99.90
50606;DHT22;36557;53.572;10.170;2022-10-24T02:07:43;13.20;99.90
50606;DHT22;36557;53.572;10.170;2022-10-24T02:10:18;13.20;99.90
50606;DHT22;36557;53.572;10.170;2022-10-24T02:12:50;13.20;99.90
50606;DHT22;36557;53.572;10.170;2022-10-24T02:15:29;13.10;99.90
50606;DHT22;36557;53.572;10.170;2022-10-24T02:17:56;13.10;99.90
50606;DHT22;36557;53.572;10.170;2022-10-24T02:20:34;13.10;99.90
50606;DHT22;36557;53.572;10.170;2022-10-24T02:25:35;13.10;99.90
50606;DHT22;36557;53.572;10.170;2022-10-24T02:28:12;13.10;99.90
50606;DHT22;36557;53.572;10.170;2022-10-24T02:30:44;13.00;99.90
50606;DHT22;36557;53.572;10.170;2022-10-24T02:33:12;13.00;99.90
50606;DHT22;36557;53.572;10.170;2022-10-24T02:35:39;13.00;99.90
50606;DHT22;36557;53.572;10.170;2022-10-24T02:38:43;13.00;99.90
50606;DHT22;36557;53.572;10.170;2022-10-24T02:41:04;12.90;99.90
50606;DHT22;36557;53.572;10.170;2022-10-24T02:43:32;12.90;99.90
50606;DHT22;36557;53.572;10.170;2022-10-24T02:45:58;12.90;99.90
50606;DHT22;36557;53.572;10.170;2022-10-24T02:48:40;12.90;99.90
50606;DHT22;36557;53.572;10.170;2022-10-24T02:51:06;12.90;99.90
50606;DHT22;36557;53.572;10.170;2022-10-24T02:53:37;12.90;99.90
50606;DHT22;36557;53.572;10.170;2022-10-24T02:56:03;12.80;99.90
50606;DHT22;36557;53.572;10.170;2022-10-24T02:58:29;12.80;99.90
50606;DHT22;36557;53.572;10.170;2022-10-24T03:00:54;12.80;99.90
50606;DHT22;36557;53.572;10.170;2022-10-24T03:03:20;12.80;99.90
50606;DHT22;36557;53.572;10.170;2022-10-24T03:05:47;12.80;99.90
50606;DHT22;36557;53.572;10.170;2022-10-24T03:08:13;12.80;99.90
50606;DHT22;36557;53.572;10.170;2022-10-24T03:10:39;12.80;99.90
50606;DHT22;36557;53.572;10.170;2022-10-24T03:13:05;12.80;99.90
50606;DHT22;36557;53.572;10.170;2022-10-24T03:15:31;12.80;99.90
50606;DHT22;36557;53.572;10.170;2022-10-24T03:17:56;12.80;99.90
50606;DHT22;36557;53.572;10.170;2022-10-24T03:20:22;12.80;99.90
50606;DHT22;36557;53.572;10.170;2022-10-24T03:22:49;12.70;99.90
50606;DHT22;36557;53.572;10.170;2022-10-24T03:25:16;12.70;99.90
50606;DHT22;36557;53.572;10.170;2022-10-24T03:27:42;12.70;99.90
50606;DHT22;36557;53.572;10.170;2022-10-24T03:30:08;12.70;99.90
50606;DHT22;36557;53.572;10.170;2022-10-24T03:32:34;12.70;99.90
50606;DHT22;36557;53.572;10.170;2022-10-24T03:35:00;12.70;99.90
50606;DHT22;36557;53.572;10.170;2022-10-24T03:37:27;12.70;99.90
50606;DHT22;36557;53.572;10.170;2022-10-24T03:39:53;12.70;99.90
50606;DHT22;36557;53.572;10.170;2022-10-24T03:42:18;12.60;99.90
50606;DHT22;36557;53.572;10.170;2022-10-24T03:44:44;12.60;99.90
50606;DHT22;36557;53.572;10.170;2022-10-24T03:47:10;12.60;99.90
50606;DHT22;36557;53.572;10.170;2022-10-24T03:49:36;12.60;99.90
50606;DHT22;36557;53.572;10.170;2022-10-24T03:52:02;12.60;99.90
50606;DHT22;36557;53.572;10.170;2022-10-24T03:54:28;12.60;99.90
50606;DHT22;36557;53.572;10.170;2022-10-24T03:56:53;12.50;99.90
50606;DHT22;36557;53.572;10.170;2022-10-24T03:59:19;12.50;99.90
50606;DHT22;36557;53.572;10.170;2022-10-24T04:01:45;12.50;99.90
50606;DHT22;36557;53.572;10.170;2022-10-24T04:04:11;12.50;99.90
50606;DHT22;36557;53.572;10.170;2022-10-24T04:06:36;12.50;99.90
50606;DHT22;36557;53.572;10.170;2022-10-24T04:09:03;12.50;99.90
50606;DHT22;36557;53.572;10.170;2022-10-24T04:11:29;12.50;99.90
50606;DHT22;36557;53.572;10.170;2022-10-24T04:13:54;12.50;99.90
50606;DHT22;36557;53.572;10.170;2022-10-24T04:16:20;12.40;99.90
50606;DHT22;36557;53.572;10.170;2022-10-24T04:18:49;12.40;99.90
50606;DHT22;36557;53.572;10.170;2022-10-24T04:21:15;12.40;99.90
50606;DHT22;36557;53.572;10.170;2022-10-24T04:23:40;12.40;99.90
50606;DHT22;36557;53.572;10.170;2022-10-24T04:26:10;12.40;99.90
50606;DHT22;36557;53.572;10.170;2022-10-24T04:28:37;12.40;99.90
50606;DHT22;36557;53.572;10.170;2022-10-24T04:31:03;12.30;99.90
50606;DHT22;36557;53.572;10.170;2022-10-24T04:33:29;12.30;99.90
50606;DHT22;36557;53.572;10.170;2022-10-24T04:35:54;12.30;99.90
50606;DHT22;36557;53.572;10.170;2022-10-24T04:38:20;12.30;99.90
50606;DHT22;36557;53.572;10.170;2022-10-24T04:40:51;12.30;99.90
50606;DHT22;36557;53.572;10.170;2022-10-24T04:43:17;12.20;99.90
50606;DHT22;36557;53.572;10.170;2022-10-24T04:45:44;12.30;99.90
50606;DHT22;36557;53.572;10.170;2022-10-24T04:48:10;12.30;99.90
50606;DHT22;36557;53.572;10.170;2022-10-24T04:50:36;12.20;99.90
50606;DHT22;36557;53.572;10.170;2022-10-24T04:53:01;12.10;99.90
50606;DHT22;36557;53.572;10.170;2022-10-24T04:55:27;12.10;99.90
50606;DHT22;36557;53.572;10.170;2022-10-24T04:57:53;12.10;99.90
50606;DHT22;36557;53.572;10.170;2022-10-24T05:00:19;12.10;99.90
50606;DHT22;36557;53.572;10.170;2022-10-24T05:02:45;12.10;99.90
50606;DHT22;36557;53.572;10.170;2022-10-24T05:05:11;12.10;99.90
50606;DHT22;36557;53.572;10.170;2022-10-24T05:07:36;12.10;99.90
50606;DHT22;36557;53.572;10.170;2022-10-24T05:10:04;12.10;99.90
50606;DHT22;36557;53.572;10.170;2022-10-24T05:12:30;12.10;99.90
50606;DHT22;36557;53.572;10.170;2022-10-24T05:14:55;12.10;99.90
50606;DHT22;36557;53.572;10.170;2022-10-24T05:17:21;12.20;99.90
50606;DHT22;36557;53.572;10.170;2022-10-24T05:19:47;12.20;99.90
50606;DHT22;36557;53.572;10.170;2022-10-24T05:22:13;12.20;99.90
50606;DHT22;36557;53.572;10.170;2022-10-24T05:24:39;12.20;99.90
50606;DHT22;36557;53.572;10.170;2022-10-24T05:27:04;12.30;99.90
50606;DHT22;36557;53.572;10.170;2022-10-24T05:29:30;12.20;99.90
50606;DHT22;36557;53.572;10.170;2022-10-24T05:31:56;12.10;99.90
50606;DHT22;36557;53.572;10.170;2022-10-24T05:34:21;12.20;99.90
50606;DHT22;36557;53.572;10.170;2022-10-24T05:36:47;12.20;99.90
50606;DHT22;36557;53.572;10.170;2022-10-24T05:39:13;12.20;99.90
50606;DHT22;36557;53.572;10.170;2022-10-24T05:41:39;12.20;99.90
50606;DHT22;36557;53.572;10.170;2022-10-24T05:44:05;12.20;99.90
50606;DHT22;36557;53.572;10.170;2022-10-24T05:46:30;12.30;99.90
50606;DHT22;36557;53.572;10.170;2022-10-24T05:48:56;12.30;99.90
50606;DHT22;36557;53.572;10.170;2022-10-24T05:51:24;12.30;99.90
50606;DHT22;36557;53.572;10.170;2022-10-24T05:53:51;12.30;99.90
50606;DHT22;36557;53.572;10.170;2022-10-24T05:56:17;12.30;99.90
50606;DHT22;36557;53.572;10.170;2022-10-24T05:58:43;12.30;99.90
50606;DHT22;36557;53.572;10.170;2022-10-24T06:01:08;12.40;99.90
50606;DHT22;36557;53.572;10.170;2022-10-24T06:03:34;12.30;99.90
50606;DHT22;36557;53.572;10.170;2022-10-24T06:06:07;12.30;99.90
50606;DHT22;36557;53.572;10.170;2022-10-24T06:08:36;12.30;99.90
50606;DHT22;36557;53.572;10.170;2022-10-24T06:11:03;12.30;99.90
50606;DHT22;36557;53.572;10.170;2022-10-24T06:13:29;12.30;99.90
50606;DHT22;36557;53.572;10.170;2022-10-24T06:15:55;12.30;99.90
50606;DHT22;36557;53.572;10.170;2022-10-24T06:18:21;12.30;99.90
50606;DHT22;36557;53.572;10.170;2022-10-24T06:20:47;12.30;99.90
50606;DHT22;36557;53.572;10.170;2022-10-24T06:23:13;12.40;99.90
50606;DHT22;36557;53.572;10.170;2022-10-24T06:25:42;12.40;99.90
50606;DHT22;36557;53.572;10.170;2022-10-24T06:28:08;12.40;99.90
50606;DHT22;36557;53.572;10.170;2022-10-24T06:30:34;12.40;99.90
50606;DHT22;36557;53.572;10.170;2022-10-24T06:33:00;12.40;99.90
50606;DHT22;36557;53.572;10.170;2022-10-24T06:35:27;12.50;99.90
50606;DHT22;36557;53.572;10.170;2022-10-24T06:37:52;12.50;99.90
50606;DHT22;36557;53.572;10.170;2022-10-24T06:40:18;12.50;99.90
50606;DHT22;36557;53.572;10.170;2022-10-24T06:42:44;12.50;99.90
50606;DHT22;36557;53.572;10.170;2022-10-24T06:45:10;12.60;99.90
50606;DHT22;36557;53.572;10.170;2022-10-24T06:47:36;12.60;99.90
50606;DHT22;36557;53.572;10.170;2022-10-24T06:50:03;12.60;99.90
50606;DHT22;36557;53.572;10.170;2022-10-24T06:52:28;12.60;99.90
50606;DHT22;36557;53.572;10.170;2022-10-24T06:54:54;12.70;99.90
50606;DHT22;36557;53.572;10.170;2022-10-24T06:57:20;12.70;99.90
50606;DHT22;36557;53.572;10.170;2022-10-24T06:59:46;12.70;99.90
50606;DHT22;36557;53.572;10.170;2022-10-24T07:02:13;12.70;99.90
50606;DHT22;36557;53.572;10.170;2022-10-24T07:04:38;12.80;99.90
50606;DHT22;36557;53.572;10.170;2022-10-24T07:07:04;12.80;99.90
50606;DHT22;36557;53.572;10.170;2022-10-24T07:09:30;12.90;99.90
50606;DHT22;36557;53.572;10.170;2022-10-24T07:11:56;12.90;99.90
50606;DHT22;36557;53.572;10.170;2022-10-24T07:14:22;12.90;99.90
50606;DHT22;36557;53.572;10.170;2022-10-24T07:16:50;13.00;99.90
50606;DHT22;36557;53.572;10.170;2022-10-24T07:19:16;13.00;99.90
50606;DHT22;36557;53.572;10.170;2022-10-24T07:21:42;13.10;99.90
50606;DHT22;36557;53.572;10.170;2022-10-24T07:24:09;13.10;99.90
50606;DHT22;36557;53.572;10.170;2022-10-24T07:26:35;13.10;99.90
50606;DHT22;36557;53.572;10.170;2022-10-24T07:29:01;13.10;99.90
50606;DHT22;36557;53.572;10.170;2022-10-24T07:31:30;13.20;99.90
50606;DHT22;36557;53.572;10.170;2022-10-24T07:33:59;13.20;99.90
50606;DHT22;36557;53.572;10.170;2022-10-24T07:36:26;13.20;99.90
50606;DHT22;36557;53.572;10.170;2022-10-24T07:38:54;13.30;99.90
50606;DHT22;36557;53.572;10.170;2022-10-24T07:41:22;13.50;99.90
50606;DHT22;36557;53.572;10.170;2022-10-24T07:43:49;13.50;99.90
50606;DHT22;36557;53.572;10.170;2022-10-24T07:46:17;13.50;99.90
50606;DHT22;36557;53.572;10.170;2022-10-24T07:48:43;13.50;99.90
50606;DHT22;36557;53.572;10.170;2022-10-24T07:51:11;13.60;99.90
50606;DHT22;36557;53.572;10.170;2022-10-24T07:53:37;13.60;99.90
50606;DHT22;36557;53.572;10.170;2022-10-24T07:56:04;13.70;99.90
50606;DHT22;36557;53.572;10.170;2022-10-24T07:58:34;13.70;99.90
50606;DHT22;36557;53.572;10.170;2022-10-24T08:01:04;13.80;99.90
50606;DHT22;36557;53.572;10.170;2022-10-24T08:03:30;13.90;99.90
50606;DHT22;36557;53.572;10.170;2022-10-24T08:05:56;14.00;99.90
50606;DHT22;36557;53.572;10.170;2022-10-24T08:08:23;14.10;99.90
50606;DHT22;36557;53.572;10.170;2022-10-24T08:10:48;14.10;99.90
50606;DHT22;36557;53.572;10.170;2022-10-24T08:13:14;14.20;99.90
50606;DHT22;36557;53.572;10.170;2022-10-24T08:15:40;14.30;99.90
50606;DHT22;36557;53.572;10.170;2022-10-24T08:18:06;14.40;99.90
50606;DHT22;36557;53.572;10.170;2022-10-24T08:20:32;14.50;99.90
50606;DHT22;36557;53.572;10.170;2022-10-24T08:22:58;14.60;99.90
50606;DHT22;36557;53.572;10.170;2022-10-24T08:25:24;14.70;99.90
50606;DHT22;36557;53.572;10.170;2022-10-24T08:27:49;14.70;99.90
50606;DHT22;36557;53.572;10.170;2022-10-24T08:30:15;14.80;99.90
50606;DHT22;36557;53.572;10.170;2022-10-24T08:32:42;14.90;99.90
50606;DHT22;36557;53.572;10.170;2022-10-24T08:35:08;14.90;99.90
50606;DHT22;36557;53.572;10.170;2022-10-24T08:37:36;15.00;99.90
50606;DHT22;36557;53.572;10.170;2022-10-24T08:40:06;15.00;99.90
50606;DHT22;36557;53.572;10.170;2022-10-24T08:42:34;15.10;99.90
50606;DHT22;36557;53.572;10.170;2022-10-24T08:45:01;15.10;99.90
50606;DHT22;36557;53.572;10.170;2022-10-24T08:47:37;15.10;99.90
50606;DHT22;36557;53.572;10.170;2022-10-24T08:52:58;15.40;99.90
50606;DHT22;36557;53.572;10.170;2022-10-24T08:55:46;15.50;99.90
50606;DHT22;36557;53.572;10.170;2022-10-24T08:58:24;15.60;99.90
50606;DHT22;36557;53.572;10.170;2022-10-24T09:00:54;15.70;99.90
50606;DHT22;36557;53.572;10.170;2022-10-24T09:03:40;15.70;99.90
50606;DHT22;36557;53.572;10.170;2022-10-24T09:06:16;15.80;99.90
50606;DHT22;36557;53.572;10.170;2022-10-24T09:11:13;16.10;99.90
50606;DHT22;36557;53.572;10.170;2022-10-24T09:13:41;16.10;99.90
50606;DHT22;36557;53.572;10.170;2022-10-24T09:16:12;16.10;99.90
50606;DHT22;36557;53.572;10.170;2022-10-24T09:18:41;16.10;99.90
50606;DHT22;36557;53.572;10.170;2022-10-24T09:21:08;16.20;99.90
50606;DHT22;36557;53.572;10.170;2022-10-24T09:23:36;16.30;99.90
50606;DHT22;36557;53.572;10.170;2022-10-24T09:26:04;16.30;99.90
50606;DHT22;36557;53.572;10.170;2022-10-24T09:28:37;16.30;99.90
50606;DHT22;36557;53.572;10.170;2022-10-24T09:31:14;16.30;99.90
50606;DHT22;36557;53.572;10.170;2022-10-24T09:33:41;16.50;99.90
50606;DHT22;36557;53.572;10.170;2022-10-24T09:36:11;16.60;99.90
50606;DHT22;36557;53.572;10.170;2022-10-24T09:38:39;16.60;99.90
50606;DHT22;36557;53.572;10.170;2022-10-24T09:41:23;16.50;99.90
50606;DHT22;36557;53.572;10.170;2022-10-24T09:43:51;16.40;99.90
50606;DHT22;36557;53.572;10.170;2022-10-24T09:46:47;16.50;99.90
50606;DHT22;36557;53.572;10.170;2022-10-24T09:51:58;16.60;99.90
50606;DHT22;36557;53.572;10.170;2022-10-24T09:54:28;16.60;99.90
50606;DHT22;36557;53.572;10.170;2022-10-24T09:57:01;16.60;99.90
50606;DHT22;36557;53.572;10.170;2022-10-24T09:59:32;16.70;99.90
50606;DHT22;36557;53.572;10.170;2022-10-24T10:04:40;16.90;99.90
50606;DHT22;36557;53.572;10.170;2022-10-24T10:07:19;17.00;99.90
50606;DHT22;36557;53.572;10.170;2022-10-24T10:09:56;17.10;99.90
50606;DHT22;36557;53.572;10.170;2022-10-24T10:12:37;17.20;99.90
50606;DHT22;36557;53.572;10.170;2022-10-24T10:17:51;17.00;99.90
50606;DHT22;36557;53.572;10.170;2022-10-24T10:20:32;17.00;99.90
50606;DHT22;36557;53.572;10.170;2022-10-24T10:23:28;16.90;99.90
50606;DHT22;36557;53.572;10.170;2022-10-24T10:26:21;17.10;99.90
50606;DHT22;36557;53.572;10.170;2022-10-24T10:28:57;17.20;99.90
50606;DHT22;36557;53.572;10.170;2022-10-24T10:34:11;17.50;99.90
50606;DHT22;36557;53.572;10.170;2022-10-24T10:36:42;17.60;99.90
50606;DHT22;36557;53.572;10.170;2022-10-24T10:42:17;17.70;99.90
50606;DHT22;36557;53.572;10.170;2022-10-24T10:44:54;17.70;99.90
50606;DHT22;36557;53.572;10.170;2022-10-24T10:47:55;17.90;99.90
50606;DHT22;36557;53.572;10.170;2022-10-24T10:50:39;18.00;99.90
50606;DHT22;36557;53.572;10.170;2022-10-24T10:53:32;18.20;99.90
50606;DHT22;36557;53.572;10.170;2022-10-24T10:56:42;18.20;99.90
50606;DHT22;36557;53.572;10.170;2022-10-24T11:04:58;18.20;99.90
50606;DHT22;36557;53.572;10.170;2022-10-24T11:10:42;18.40;99.90
50606;DHT22;36557;53.572;10.170;2022-10-24T11:13:17;18.40;99.90
50606;DHT22;36557;53.572;10.170;2022-10-24T11:15:47;18.40;99.90
50606;DHT22;36557;53.572;10.170;2022-10-24T11:18:51;18.30;99.90
50606;DHT22;36557;53.572;10.170;2022-10-24T11:21:14;18.20;99.90
50606;DHT22;36557;53.572;10.170;2022-10-24T11:26:25;18.20;99.90
50606;DHT22;36557;53.572;10.170;2022-10-24T11:28:58;18.30;99.90
50606;DHT22;36557;53.572;10.170;2022-10-24T11:31:44;18.20;99.90
50606;DHT22;36557;53.572;10.170;2022-10-24T11:34:36;18.20;99.90
50606;DHT22;36557;53.572;10.170;2022-10-24T11:37:33;18.60;99.90
50606;DHT22;36557;53.572;10.170;2022-10-24T11:40:09;18.70;99.90
50606;DHT22;36557;53.572;10.170;2022-10-24T11:42:56;18.70;99.90
50606;DHT22;36557;53.572;10.170;2022-10-24T11:45:50;18.70;99.90
50606;DHT22;36557;53.572;10.170;2022-10-24T11:51:11;18.50;99.90
50606;DHT22;36557;53.572;10.170;2022-10-24T11:53:48;18.40;99.90
50606;DHT22;36557;53.572;10.170;2022-10-24T11:56:26;18.20;99.90
50606;DHT22;36557;53.572;10.170;2022-10-24T11:59:00;18.10;99.90
50606;DHT22;36557;53.572;10.170;2022-10-24T12:13:13;17.90;99.90
50606;DHT22;36557;53.572;10.170;2022-10-24T12:18:36;17.80;99.90
50606;DHT22;36557;53.572;10.170;2022-10-24T12:21:06;17.80;99.90
50606;DHT22;36557;53.572;10.170;2022-10-24T12:23:33;17.90;99.90
50606;DHT22;36557;53.572;10.170;2022-10-24T12:28:31;18.20;99.90
50606;DHT22;36557;53.572;10.170;2022-10-24T12:33:38;18.00;99.90
50606;DHT22;36557;53.572;10.170;2022-10-24T12:36:04;18.00;99.90
50606;DHT22;36557;53.572;10.170;2022-10-24T12:41:06;17.90;99.90
50606;DHT22;36557;53.572;10.170;2022-10-24T12:46:55;17.60;99.90
50606;DHT22;36557;53.572;10.170;2022-10-24T12:49:31;17.50;99.90
50606;DHT22;36557;53.572;10.170;2022-10-24T12:51:58;17.50;99.90
50606;DHT22;36557;53.572;10.170;2022-10-24T12:54:44;17.50;99.90
50606;DHT22;36557;53.572;10.170;2022-10-24T12:59:49;17.60;99.90
50606;DHT22;36557;53.572;10.170;2022-10-24T13:13:49;18.10;99.90
50606;DHT22;36557;53.572;10.170;2022-10-24T13:24:45;18.30;99.90
50606;DHT22;36557;53.572;10.170;2022-10-24T13:27:13;18.20;99.90
50606;DHT22;36557;53.572;10.170;2022-10-24T13:37:45;17.80;99.90
50606;DHT22;36557;53.572;10.170;2022-10-24T13:40:30;17.70;99.90
50606;DHT22;36557;53.572;10.170;2022-10-24T13:43:03;17.60;99.90
50606;DHT22;36557;53.572;10.170;2022-10-24T13:45:46;17.50;99.90
50606;DHT22;36557;53.572;10.170;2022-10-24T13:48:20;17.50;99.90
50606;DHT22;36557;53.572;10.170;2022-10-24T13:51:34;17.50;99.90
50606;DHT22;36557;53.572;10.170;2022-10-24T13:53:42;17.50;99.90
50606;DHT22;36557;53.572;10.170;2022-10-24T13:56:12;17.50;99.90
50606;DHT22;36557;53.572;10.170;2022-10-24T13:58:43;17.50;99.90
50606;DHT22;36557;53.572;10.170;2022-10-24T14:01:24;17.60;99.90
50606;DHT22;36557;53.572;10.170;2022-10-24T14:03:52;17.60;99.90
50606;DHT22;36557;53.572;10.170;2022-10-24T14:06:29;17.80;99.90
50606;DHT22;36557;53.572;10.170;2022-10-24T14:09:04;17.80;99.90
50606;DHT22;36557;53.572;10.170;2022-10-24T14:11:38;17.70;99.90
50606;DHT22;36557;53.572;10.170;2022-10-24T14:14:34;17.70;99.90
50606;DHT22;36557;53.572;10.170;2022-10-24T14:17:18;17.60;99.90
50606;DHT22;36557;53.572;10.170;2022-10-24T14:19:49;17.40;99.90
50606;DHT22;36557;53.572;10.170;2022-10-24T14:22:21;17.40;99.90
50606;DHT22;36557;53.572;10.170;2022-10-24T14:24:47;17.50;99.90
50606;DHT22;36557;53.572;10.170;2022-10-24T14:27:14;17.50;99.90
50606;DHT22;36557;53.572;10.170;2022-10-24T14:29:50;17.30;99.90
50606;DHT22;36557;53.572;10.170;2022-10-24T14:32:17;17.20;99.90
50606;DHT22;36557;53.572;10.170;2022-10-24T14:34:43;17.30;99.90
50606;DHT22;36557;53.572;10.170;2022-10-24T14:37:15;17.30;99.90
50606;DHT22;36557;53.572;10.170;2022-10-24T14:39:44;17.20;99.90
50606;DHT22;36557;53.572;10.170;2022-10-24T14:42:15;17.20;99.90
50606;DHT22;36557;53.572;10.170;2022-10-24T14:44:42;17.30;99.90
50606;DHT22;36557;53.572;10.170;2022-10-24T14:47:34;17.20;99.90
50606;DHT22;36557;53.572;10.170;2022-10-24T14:50:00;17.20;99.90
50606;DHT22;36557;53.572;10.170;2022-10-24T14:52:32;17.30;99.90
50606;DHT22;36557;53.572;10.170;2022-10-24T14:55:15;17.40;99.90
50606;DHT22;36557;53.572;10.170;2022-10-24T14:57:47;17.40;99.90
50606;DHT22;36557;53.572;10.170;2022-10-24T15:00:26;17.40;99.90
50606;DHT22;36557;53.572;10.170;2022-10-24T15:02:59;17.20;99.90
50606;DHT22;36557;53.572;10.170;2022-10-24T15:05:30;17.20;99.90
50606;DHT22;36557;53.572;10.170;2022-10-24T15:08:22;17.10;99.90
50606;DHT22;36557;53.572;10.170;2022-10-24T15:10:59;17.00;99.90
50606;DHT22;36557;53.572;10.170;2022-10-24T15:13:31;17.00;99.90
50606;DHT22;36557;53.572;10.170;2022-10-24T15:15:59;17.00;99.90
50606;DHT22;36557;53.572;10.170;2022-10-24T15:20:53;16.90;99.90
50606;DHT22;36557;53.572;10.170;2022-10-24T15:23:27;16.80;99.90
50606;DHT22;36557;53.572;10.170;2022-10-24T15:26:29;16.70;99.90
50606;DHT22;36557;53.572;10.170;2022-10-24T15:29:14;16.60;99.90
50606;DHT22;36557;53.572;10.170;2022-10-24T15:31:43;16.60;99.90
50606;DHT22;36557;53.572;10.170;2022-10-24T15:34:28;16.60;99.90
50606;DHT22;36557;53.572;10.170;2022-10-24T15:36:57;16.50;99.90
50606;DHT22;36557;53.572;10.170;2022-10-24T15:39:23;16.40;99.90
50606;DHT22;36557;53.572;10.170;2022-10-24T15:41:50;16.30;99.90
50606;DHT22;36557;53.572;10.170;2022-10-24T15:44:22;16.30;99.90
50606;DHT22;36557;53.572;10.170;2022-10-24T15:46:50;16.20;99.90
50606;DHT22;36557;53.572;10.170;2022-10-24T15:49:16;16.20;99.90
50606;DHT22;36557;53.572;10.170;2022-10-24T15:51:44;16.20;99.90
50606;DHT22;36557;53.572;10.170;2022-10-24T15:54:12;16.10;99.90
50606;DHT22;36557;53.572;10.170;2022-10-24T15:56:38;16.00;99.90
50606;DHT22;36557;53.572;10.170;2022-10-24T15:59:04;16.00;99.90
50606;DHT22;36557;53.572;10.170;2022-10-24T16:01:38;15.90;99.90
50606;DHT22;36557;53.572;10.170;2022-10-24T16:04:06;16.00;99.90
50606;DHT22;36557;53.572;10.170;2022-10-24T16:06:32;16.00;99.90
50606;DHT22;36557;53.572;10.170;2022-10-24T16:08:59;15.90;99.90
50606;DHT22;36557;53.572;10.170;2022-10-24T16:11:25;15.90;99.90
50606;DHT22;36557;53.572;10.170;2022-10-24T16:13:51;15.90;99.90
50606;DHT22;36557;53.572;10.170;2022-10-24T16:16:17;15.90;99.90
50606;DHT22;36557;53.572;10.170;2022-10-24T16:18:43;15.90;99.90
50606;DHT22;36557;53.572;10.170;2022-10-24T16:21:17;15.90;99.90
50606;DHT22;36557;53.572;10.170;2022-10-24T16:23:44;15.90;99.90
50606;DHT22;36557;53.572;10.170;2022-10-24T16:26:10;15.90;99.90
50606;DHT22;36557;53.572;10.170;2022-10-24T16:28:36;15.80;99.90
50606;DHT22;36557;53.572;10.170;2022-10-24T16:31:04;15.80;99.90
50606;DHT22;36557;53.572;10.170;2022-10-24T16:33:30;15.70;99.90
50606;DHT22;36557;53.572;10.170;2022-10-24T16:35:56;15.70;99.90
50606;DHT22;36557;53.572;10.170;2022-10-24T16:38:22;15.70;99.90
50606;DHT22;36557;53.572;10.170;2022-10-24T16:40:48;15.70;99.90
50606;DHT22;36557;53.572;10.170;2022-10-24T16:43:17;15.70;99.90
50606;DHT22;36557;53.572;10.170;2022-10-24T16:45:44;15.70;99.90
50606;DHT22;36557;53.572;10.170;2022-10-24T16:48:11;15.70;99.90
50606;DHT22;36557;53.572;10.170;2022-10-24T16:50:40;15.70;99.90
50606;DHT22;36557;53.572;10.170;2022-10-24T16:53:08;15.60;99.90
50606;DHT22;36557;53.572;10.170;2022-10-24T16:55:34;15.70;99.90
50606;DHT22;36557;53.572;10.170;2022-10-24T16:58:00;15.60;99.90
50606;DHT22;36557;53.572;10.170;2022-10-24T17:00:26;15.60;99.90
50606;DHT22;36557;53.572;10.170;2022-10-24T17:02:54;15.60;99.90
50606;DHT22;36557;53.572;10.170;2022-10-24T17:05:24;15.50;99.90
50606;DHT22;36557;53.572;10.170;2022-10-24T17:07:50;15.50;99.90
50606;DHT22;36557;53.572;10.170;2022-10-24T17:10:16;15.50;99.90
50606;DHT22;36557;53.572;10.170;2022-10-24T17:12:43;15.60;99.90
50606;DHT22;36557;53.572;10.170;2022-10-24T17:15:09;15.50;99.90
50606;DHT22;36557;53.572;10.170;2022-10-24T17:17:36;15.60;99.90
50606;DHT22;36557;53.572;10.170;2022-10-24T17:20:03;15.50;99.90
50606;DHT22;36557;53.572;10.170;2022-10-24T17:22:29;15.50;99.90